Time;durP1;ratioP1;P1;durP2;ratioP2;P2;SDS_P1;SDS_P2;PMS_P1;PMS_P2;Temp;Humidity;BMP_temperature;BMP_pressure;BME280_temperature;BME280_humidity;BME280_pressure;Samples;Min_cycle;Max_cycle;Signal;HPM_P1;HPM_P2
2022/04/26 03:36:11;;;;;;;7.63;4.30;;;;;;;9.04;77.52;101619.78;5060614;28;20420;-48
2022/04/26 03:38:38;;;;;;;11.07;4.68;;;;;;;9.08;76.97;101614.00;5063757;28;20047;-51
2022/04/26 03:41:03;;;;;;;5.90;4.20;;;;;;;9.05;76.83;101621.56;5058241;28;20033;-48
2022/04/26 03:43:29;;;;;;;10.77;4.47;;;;;;;9.07;76.99;101630.19;5058051;28;20076;-49
2022/04/26 03:45:55;;;;;;;9.93;4.15;;;;;;;9.03;77.08;101628.28;5061386;28;20469;-50
2022/04/26 03:48:21;;;;;;;10.32;4.50;;;;;;;9.03;77.35;101628.28;5060549;28;20056;-50
2022/04/26 03:50:46;;;;;;;7.25;4.53;;;;;;;9.01;77.34;101627.34;5061282;28;20056;-46
2022/04/26 03:53:12;;;;;;;6.28;4.10;;;;;;;9.04;77.45;101627.47;5059407;28;20024;-46
2022/04/26 03:55:37;;;;;;;8.07;4.72;;;;;;;9.02;77.37;101634.25;5061206;28;20028;-47
2022/04/26 03:58:02;;;;;;;10.90;5.15;;;;;;;8.98;77.77;101632.31;5058864;28;20036;-49
2022/04/26 04:00:28;;;;;;;8.93;4.78;;;;;;;8.92;78.02;101632.03;5059119;28;20043;-50
2022/04/26 04:02:53;;;;;;;9.88;4.78;;;;;;;8.95;77.66;101620.25;5059316;28;20043;-47
2022/04/26 04:05:18;;;;;;;8.45;4.75;;;;;;;8.99;77.58;101636.69;5057313;28;20028;-49
2022/04/26 04:07:44;;;;;;;9.32;5.05;;;;;;;8.99;77.83;101634.13;5059967;28;20032;-49
2022/04/26 04:10:09;;;;;;;8.88;5.07;;;;;;;8.95;77.58;101635.63;5060225;28;20079;-50
2022/04/26 04:12:35;;;;;;;8.35;4.93;;;;;;;8.91;77.53;101644.00;5060780;28;20028;-50
2022/04/26 04:15:00;;;;;;;11.93;4.93;;;;;;;8.86;77.91;101638.66;5056382;28;20078;-47
2022/04/26 04:17:25;;;;;;;10.27;4.75;;;;;;;8.88;78.02;101643.88;5061226;28;20104;-46
2022/04/26 04:19:51;;;;;;;9.07;4.82;;;;;;;8.88;77.71;101643.88;5057656;28;20064;-49
2022/04/26 04:22:16;;;;;;;7.63;4.85;;;;;;;8.94;78.08;101650.97;5060017;28;20033;-50
2022/04/26 04:24:41;;;;;;;9.73;5.47;;;;;;;8.90;77.95;101657.63;5061172;28;20032;-50
2022/04/26 04:27:09;;;;;;;8.70;5.07;;;;;;;8.85;78.14;101652.28;5057895;28;20090;-50
2022/04/26 04:29:34;;;;;;;8.75;5.00;;;;;;;8.86;78.29;101658.31;5060114;28;20029;-47
2022/04/26 04:32:00;;;;;;;8.82;5.15;;;;;;;8.84;78.62;101659.91;5054104;28;20048;-46
2022/04/26 04:34:25;;;;;;;10.13;4.93;;;;;;;8.81;78.64;101658.09;5059721;28;20409;-47
2022/04/26 04:36:50;;;;;;;7.47;5.18;;;;;;;8.86;78.44;101659.19;5059948;28;20036;-45
2022/04/26 04:39:19;;;;;;;10.15;5.00;;;;;;;8.83;78.63;101664.16;5057615;28;20052;-46
2022/04/26 04:41:49;;;;;;;10.77;5.50;;;;;;;8.84;78.84;101667.59;5060334;28;20056;-47
2022/04/26 04:44:14;;;;;;;10.77;4.82;;;;;;;8.77;78.77;101658.72;5057463;28;20064;-48
2022/04/26 04:46:40;;;;;;;9.68;4.93;;;;;;;8.80;78.68;101665.72;5062255;28;21100;-45
2022/04/26 04:49:05;;;;;;;9.00;5.70;;;;;;;8.82;78.73;101669.22;5053616;28;20028;-47
2022/04/26 04:51:30;;;;;;;8.93;5.20;;;;;;;8.82;78.58;101667.53;5059925;28;20020;-50
2022/04/26 04:53:56;;;;;;;7.18;5.47;;;;;;;8.79;79.43;101680.19;5055410;28;20384;-47
2022/04/26 04:56:24;;;;;;;9.93;5.13;;;;;;;8.81;79.18;101688.84;5060276;28;20117;-47
2022/04/26 04:58:50;;;;;;;9.00;5.03;;;;;;;8.85;79.37;101687.28;5057365;28;21179;-48
2022/04/26 05:01:15;;;;;;;9.68;5.75;;;;;;;8.86;79.34;101691.66;5059902;28;20322;-50
2022/04/26 05:03:41;;;;;;;7.88;5.10;;;;;;;8.92;79.42;101689.38;5056490;28;20028;-50
2022/04/26 05:06:06;;;;;;;9.95;5.30;;;;;;;8.92;78.50;101697.06;5056949;28;20155;-47
2022/04/26 05:08:32;;;;;;;8.57;5.30;;;;;;;8.94;78.62;101690.31;5059639;28;20032;-49
2022/04/26 05:10:57;;;;;;;9.25;5.80;;;;;;;8.97;78.59;101703.28;5057676;28;20020;-48
2022/04/26 05:13:23;;;;;;;9.60;5.43;;;;;;;8.93;78.29;101706.53;5059870;28;20181;-50
2022/04/26 05:15:48;;;;;;;10.70;5.32;;;;;;;8.98;78.59;101709.28;5059789;28;20056;-50
2022/04/26 05:18:14;;;;;;;9.57;5.13;;;;;;;8.96;78.27;101714.34;5061310;28;20032;-50
2022/04/26 05:20:39;;;;;;;11.73;4.90;;;;;;;9.00;78.68;101708.56;5056763;28;20029;-50
2022/04/26 05:25:49;;;;;;;13.63;5.60;;;;;;;8.97;78.80;101718.66;5062026;28;20084;-44
2022/04/26 05:28:14;;;;;;;18.17;6.18;;;;;;;9.01;79.11;101715.44;5052602;28;20024;-48
2022/04/26 05:30:40;;;;;;;12.45;5.93;;;;;;;9.01;79.54;101715.44;5060027;28;20039;-44
2022/04/26 05:33:05;;;;;;;8.70;5.22;;;;;;;9.02;79.03;101719.78;5061908;28;20055;-44
2022/04/26 05:35:30;;;;;;;13.88;6.28;;;;;;;9.01;78.85;101718.03;5064628;28;20102;-44
2022/04/26 05:37:56;;;;;;;13.50;6.03;;;;;;;9.01;78.83;101725.72;5061504;28;20036;-44
2022/04/26 05:40:21;;;;;;;13.65;5.70;;;;;;;8.99;79.35;101724.78;5067014;28;20043;-43
2022/04/26 05:42:46;;;;;;;10.48;5.78;;;;;;;9.02;79.31;101719.78;5066282;28;20032;-43
2022/04/26 05:45:12;;;;;;;10.00;5.63;;;;;;;9.04;79.48;101724.97;5065701;28;20115;-45
2022/04/26 05:47:45;;;;;;;10.75;5.65;;;;;;;9.02;79.45;101722.34;5065683;28;20107;-44
2022/04/26 05:50:11;;;;;;;11.98;5.93;;;;;;;9.00;79.37;101731.66;5065139;28;20025;-45
2022/04/26 05:52:38;;;;;;;11.13;6.15;;;;;;;9.01;79.74;101737.66;5068136;28;20096;-43
2022/04/26 05:55:04;;;;;;;13.68;6.70;;;;;;;9.02;79.94;101731.72;5065723;28;20033;-43
2022/04/26 05:57:36;;;;;;;11.00;5.65;;;;;;;9.08;79.88;101735.47;5067513;28;20078;-45
2022/04/26 06:00:04;;;;;;;11.07;6.28;;;;;;;9.01;79.88;101733.41;5065639;28;20035;-45
2022/04/26 06:02:29;;;;;;;11.88;6.15;;;;;;;9.01;79.94;101738.53;5067578;28;20032;-46
2022/04/26 06:04:55;;;;;;;12.45;6.65;;;;;;;9.03;79.85;101736.03;5065902;28;20106;-43
2022/04/26 06:07:20;;;;;;;9.35;6.28;;;;;;;9.06;79.65;101741.34;5065321;28;20032;-43
2022/04/26 06:09:46;;;;;;;12.48;6.10;;;;;;;9.07;80.44;101737.97;5066881;28;20678;-43
2022/04/26 06:12:12;;;;;;;12.32;6.95;;;;;;;9.08;79.72;101740.59;5065563;28;20024;-42
2022/04/26 06:14:38;;;;;;;14.55;6.40;;;;;;;9.13;79.90;101741.69;5069039;28;20050;-44
2022/04/26 06:17:03;;;;;;;15.48;7.00;;;;;;;9.11;79.74;101745.88;5064733;28;20040;-43
2022/04/26 06:19:29;;;;;;;12.30;6.43;;;;;;;9.13;79.69;101751.97;5063480;28;20031;-43
2022/04/26 06:21:54;;;;;;;8.93;7.10;;;;;;;9.09;79.79;101757.75;5066348;28;20028;-44
2022/04/26 06:24:20;;;;;;;11.23;6.80;;;;;;;9.12;79.31;101757.91;5059384;28;20028;-44
2022/04/26 06:26:45;;;;;;;13.93;7.70;;;;;;;9.10;79.67;101759.53;5063513;28;20025;-46
2022/04/26 06:29:10;;;;;;;13.18;7.53;;;;;;;9.13;79.87;101769.03;5067509;28;20056;-43
2022/04/26 06:31:36;;;;;;;14.65;7.22;;;;;;;9.13;80.04;101767.34;5063930;28;20036;-44
2022/04/26 06:34:01;;;;;;;14.07;8.43;;;;;;;9.17;80.07;101764.94;5065539;28;20053;-44
2022/04/26 06:36:26;;;;;;;10.57;7.65;;;;;;;9.17;80.07;101772.66;5065121;28;20056;-44
2022/04/26 06:38:52;;;;;;;12.07;7.68;;;;;;;9.14;79.62;101770.78;5063777;28;20036;-44
2022/04/26 06:41:17;;;;;;;15.05;8.38;;;;;;;9.05;80.19;101766.13;5062914;28;20029;-43
2022/04/26 06:43:42;;;;;;;11.95;8.10;;;;;;;9.11;80.44;101770.66;5064872;28;20040;-43
2022/04/26 06:46:08;;;;;;;19.63;8.98;;;;;;;9.12;79.82;101786.13;5068287;28;20057;-44
2022/04/26 06:48:33;;;;;;;12.02;8.73;;;;;;;9.13;79.32;101784.44;5069509;28;20070;-43
2022/04/26 06:50:58;;;;;;;13.82;8.90;;;;;;;9.16;79.89;101784.59;5071667;28;20110;-44
2022/04/26 06:53:24;;;;;;;14.52;8.45;;;;;;;9.17;79.08;101790.59;5070428;28;20029;-44
2022/04/26 06:55:49;;;;;;;17.77;8.50;;;;;;;9.18;78.28;101788.09;5061674;28;20025;-43
2022/04/26 06:58:15;;;;;;;13.45;8.07;;;;;;;9.18;78.08;101790.69;5067956;28;20029;-53
2022/04/26 07:00:40;;;;;;;14.70;8.50;;;;;;;9.17;78.36;101790.59;5069799;28;20033;-53
2022/04/26 07:03:06;;;;;;;17.55;8.02;;;;;;;9.22;78.67;101784.91;5069090;28;20397;-51
2022/04/26 07:05:31;;;;;;;14.32;8.07;;;;;;;9.33;78.33;101787.94;5068284;28;20435;-53
2022/04/26 07:07:57;;;;;;;14.88;8.80;;;;;;;9.44;77.94;101796.16;5069352;28;20025;-53
2022/04/26 07:10:22;;;;;;;12.90;8.02;;;;;;;9.50;77.36;101794.78;5066996;28;20040;-50
2022/04/26 07:12:48;;;;;;;13.23;8.40;;;;;;;9.58;77.07;101797.69;5066507;28;20146;-53
2022/04/26 07:15:14;;;;;;;13.63;8.18;;;;;;;9.62;76.97;101797.03;5067195;28;20053;-51
2022/04/26 07:17:40;;;;;;;12.88;7.65;;;;;;;9.64;76.49;101800.53;5070144;28;20025;-52
2022/04/26 07:20:08;;;;;;;13.98;7.68;;;;;;;9.68;76.06;101802.47;5068834;28;20552;-52
2022/04/26 07:22:33;;;;;;;14.55;7.97;;;;;;;9.75;76.30;101808.75;5067507;28;20024;-53
2022/04/26 07:24:59;;;;;;;14.25;7.60;;;;;;;9.82;75.98;101808.22;5070251;28;20029;-53
2022/04/26 07:27:25;;;;;;;13.45;8.20;;;;;;;9.90;75.38;101799.19;5065635;28;20110;-54
2022/04/26 07:29:51;;;;;;;12.27;8.27;;;;;;;9.98;74.71;101807.25;5071190;28;20028;-50
2022/04/26 07:32:16;;;;;;;12.30;7.20;;;;;;;10.05;74.64;101807.59;5069395;28;20480;-53
2022/04/26 07:34:42;;;;;;;14.18;7.40;;;;;;;10.10;73.80;101807.81;5068302;28;20068;-52
2022/04/26 07:37:07;;;;;;;14.18;7.70;;;;;;;10.15;73.06;101811.47;5070335;28;20108;-54
2022/04/26 07:39:34;;;;;;;11.25;7.45;;;;;;;10.14;73.15;101809.72;5069935;28;20111;-52
2022/04/26 07:42:02;;;;;;;13.80;6.90;;;;;;;10.16;72.04;101821.81;5067583;28;20104;-46
2022/04/26 07:44:28;;;;;;;12.88;7.93;;;;;;;10.07;72.60;101817.94;5066565;28;20032;-52
2022/04/26 07:46:54;;;;;;;13.63;7.30;;;;;;;10.05;73.27;101819.56;5067610;28;20036;-54
2022/04/26 07:49:21;;;;;;;14.00;6.80;;;;;;;10.06;72.78;101823.88;5066151;28;20028;-52
2022/04/26 07:51:47;;;;;;;13.30;6.97;;;;;;;10.06;72.78;101826.44;5069470;28;20028;-53
2022/04/26 07:54:12;;;;;;;19.52;7.15;;;;;;;10.05;72.47;101825.56;5067598;28;20064;-54
2022/04/26 07:56:38;;;;;;;13.27;7.10;;;;;;;10.02;72.93;101829.72;5065418;28;20102;-50
2022/04/26 07:59:04;;;;;;;12.48;6.80;;;;;;;10.05;73.20;101832.41;5062913;28;20552;-53
2022/04/26 08:01:33;;;;;;;12.00;7.20;;;;;;;10.15;73.23;101838.03;5070542;28;20384;-53
2022/04/26 08:03:59;;;;;;;12.23;7.07;;;;;;;10.23;73.93;101838.41;5066834;28;20078;-53
2022/04/26 08:06:25;;;;;;;11.57;6.68;;;;;;;10.23;72.53;101840.06;5068418;28;20042;-54
2022/04/26 08:08:50;;;;;;;15.23;6.97;;;;;;;10.24;73.14;101840.16;5085144;28;20033;-54
2022/04/26 08:11:16;;;;;;;13.00;7.28;;;;;;;10.29;73.92;101843.81;5062426;28;20202;-54
2022/04/26 08:13:43;;;;;;;12.43;6.63;;;;;;;10.35;73.15;101849.25;5067120;28;20024;-52
2022/04/26 08:16:09;;;;;;;11.43;7.13;;;;;;;10.40;73.81;101854.59;5068690;28;20077;-51
2022/04/26 08:18:36;;;;;;;11.82;7.20;;;;;;;10.36;73.11;101852.69;5067456;28;20036;-53
2022/04/26 08:21:01;;;;;;;12.23;6.55;;;;;;;10.45;73.32;101864.28;5067616;28;20074;-54
2022/04/26 08:23:27;;;;;;;13.52;6.10;;;;;;;10.50;72.05;101867.06;5068439;28;20025;-54
2022/04/26 08:28:36;;;;;;;14.77;6.10;;;;;;;10.52;70.66;101860.28;5068210;28;20133;-54
2022/04/26 08:31:04;;;;;;;12.32;5.30;;;;;;;10.60;70.74;101876.03;5068898;28;20470;-53
2022/04/26 08:33:30;;;;;;;11.32;5.35;;;;;;;10.52;70.19;101860.28;5066662;28;20854;-54
2022/04/26 08:35:56;;;;;;;10.63;6.53;;;;;;;10.51;71.54;101858.53;5067964;28;20036;-48
2022/04/26 08:38:22;;;;;;;10.15;6.10;;;;;;;10.55;70.93;101865.53;5065837;28;20119;-52
2022/04/26 08:40:47;;;;;;;12.07;5.40;;;;;;;10.64;70.87;101859.94;5069198;28;20128;-54
2022/04/26 08:43:13;;;;;;;11.32;5.32;;;;;;;10.85;70.69;101870.25;5069315;28;20484;-51
2022/04/26 08:45:39;;;;;;;12.75;5.53;;;;;;;10.97;69.39;101871.66;5068543;28;20024;-54
2022/04/26 08:51:04;;;;;;;15.15;5.45;;;;;;;11.11;67.52;101874.84;5069758;28;20507;-54
2022/04/26 08:53:34;;;;;;;11.90;4.75;;;;;;;11.33;67.91;101868.88;5065915;28;20021;-52
2022/04/26 08:56:03;;;;;;;12.35;5.05;;;;;;;11.37;66.80;101875.03;5067115;28;20431;-46
2022/04/26 08:58:34;;;;;;;12.80;4.85;;;;;;;11.49;66.26;101878.09;5067848;28;20016;-54
2022/04/26 09:01:08;;;;;;;10.45;4.47;;;;;;;11.64;65.82;101877.81;5065815;28;20050;-48
2022/04/26 09:03:54;;;;;;;11.55;4.40;;;;;;;11.84;65.10;101876.09;5065908;28;20025;-54
2022/04/26 09:06:36;;;;;;;10.35;4.72;;;;;;;12.05;66.98;101874.31;5065872;28;20125;-54
2022/04/26 09:09:21;;;;;;;12.88;4.47;;;;;;;12.21;64.97;101876.66;5062591;28;20056;-54
2022/04/26 09:11:48;;;;;;;8.80;4.28;;;;;;;12.33;63.22;101879.72;5079287;28;20048;-50
2022/04/26 09:14:36;;;;;;;10.30;3.78;;;;;;;12.48;62.46;101883.66;5064340;28;20534;-52
2022/04/26 09:17:09;;;;;;;7.93;3.95;;;;;;;12.54;61.57;101883.88;5065524;28;20040;-51
2022/04/26 09:19:48;;;;;;;7.35;4.00;;;;;;;12.65;60.89;101884.28;5066603;28;20392;-54
2022/04/26 09:22:21;;;;;;;6.90;3.47;;;;;;;12.72;59.54;101883.66;5062254;28;20033;-54
2022/04/26 09:25:04;;;;;;;8.77;3.60;;;;;;;12.74;58.52;101894.91;5063874;28;20029;-54
2022/04/26 09:27:30;;;;;;;8.98;3.65;;;;;;;12.79;56.99;101891.66;5061269;28;20440;-54
2022/04/26 09:29:57;;;;;;;10.32;3.40;;;;;;;12.92;56.81;101889.50;5066614;28;20036;-54
2022/04/26 09:32:23;;;;;;;7.78;4.00;;;;;;;12.93;56.22;101889.59;5068056;28;20059;-54
2022/04/26 09:34:49;;;;;;;6.63;3.72;;;;;;;13.02;56.41;101894.19;5067867;28;20508;-53
2022/04/26 09:37:16;;;;;;;7.10;3.63;;;;;;;12.99;55.35;101894.09;5067637;28;20099;-54
2022/04/26 09:39:59;;;;;;;7.18;3.42;;;;;;;13.07;55.42;101908.13;5067289;28;20044;-51
2022/04/26 09:42:33;;;;;;;8.90;4.00;;;;;;;13.14;54.17;101898.06;5067849;28;20074;-54
2022/04/26 09:45:06;;;;;;;8.43;3.50;;;;;;;13.20;55.51;101902.56;5067673;28;20400;-52
2022/04/26 09:47:42;;;;;;;8.57;4.05;;;;;;;13.26;55.80;101907.97;5066743;28;20468;-54
2022/04/26 09:50:10;;;;;;;6.82;3.45;;;;;;;13.34;57.84;101909.09;5066247;28;20539;-54
2022/04/26 09:52:36;;;;;;;6.32;3.67;;;;;;;13.34;57.04;101906.50;5064981;28;20103;-59
2022/04/26 09:55:03;;;;;;;10.07;3.88;;;;;;;13.39;55.99;101911.81;5065990;28;20587;-54
2022/04/26 09:57:31;;;;;;;6.20;3.65;;;;;;;13.54;55.40;101912.34;5067733;28;20032;-48
2022/04/26 09:59:59;;;;;;;5.10;3.38;;;;;;;13.59;54.48;101915.97;5065895;28;20032;-53
2022/04/26 10:02:30;;;;;;;9.55;3.72;;;;;;;13.71;54.38;101919.75;5065479;28;20732;-53
2022/04/26 10:05:01;;;;;;;5.95;3.03;;;;;;;13.79;52.35;101928.66;5062926;28;20428;-54
2022/04/26 10:07:32;;;;;;;9.32;3.45;;;;;;;13.77;53.86;101928.59;5067313;28;20017;-54
2022/04/26 10:09:58;;;;;;;8.85;3.20;;;;;;;13.86;52.91;101918.53;5063152;28;20028;-54
2022/04/26 10:12:24;;;;;;;6.50;3.33;;;;;;;14.08;54.30;101916.63;5061969;28;20029;-48
2022/04/26 10:14:50;;;;;;;7.65;3.53;;;;;;;14.13;52.61;101925.38;5066061;28;20493;-54
2022/04/26 10:17:19;;;;;;;9.65;3.60;;;;;;;14.31;52.95;101925.06;5059894;28;20498;-53
2022/04/26 10:19:44;;;;;;;6.40;3.35;;;;;;;14.28;52.08;101930.16;5061839;28;20078;-54
2022/04/26 10:22:14;;;;;;;6.93;3.30;;;;;;;14.21;51.58;101929.97;5066326;28;20034;-55
2022/04/26 10:25:00;;;;;;;5.50;3.20;;;;;;;14.23;51.76;101930.88;5066988;28;20025;-54
2022/04/26 10:27:25;;;;;;;9.50;3.55;;;;;;;14.03;49.29;101944.06;5067792;28;20488;-54
2022/04/26 10:29:52;;;;;;;12.43;3.65;;;;;;;13.88;49.14;101947.88;5065102;28;20031;-54
2022/04/26 10:32:40;;;;;;;6.00;3.72;;;;;;;13.95;51.15;101942.13;5065809;28;20031;-54
2022/04/26 10:35:26;;;;;;;8.57;3.55;;;;;;;14.13;49.02;101952.13;5066858;28;20059;-54
2022/04/26 10:38:14;;;;;;;7.38;3.30;;;;;;;13.99;47.94;101944.78;5065666;28;20028;-54
2022/04/26 10:41:04;;;;;;;7.95;3.30;;;;;;;13.94;49.59;101944.63;5062919;28;20045;-51
2022/04/26 10:43:30;;;;;;;7.43;3.60;;;;;;;14.03;49.66;101944.94;5067156;28;21652;-53
2022/04/26 10:46:15;;;;;;;6.28;3.30;;;;;;;14.20;48.86;101959.25;5064971;28;20120;-50
2022/04/26 10:48:41;;;;;;;5.32;3.22;;;;;;;14.22;48.88;101952.41;5063373;28;20060;-51
2022/04/26 10:51:35;;;;;;;5.35;3.88;;;;;;;14.42;49.41;101950.41;5065949;28;20081;-53
2022/04/26 10:54:04;;;;;;;6.18;3.42;;;;;;;14.70;48.30;101949.56;5065079;28;20054;-54
2022/04/26 10:56:30;;;;;;;6.78;3.42;;;;;;;14.93;46.71;101950.19;5065259;28;20028;-52
2022/04/26 10:58:55;;;;;;;10.82;3.60;;;;;;;15.09;47.74;101946.28;5063462;28;20089;-54
2022/04/26 11:01:24;;;;;;;8.18;3.33;;;;;;;15.16;46.94;101957.69;5064968;28;20117;-53
2022/04/26 11:03:51;;;;;;;4.15;3.10;;;;;;;15.14;45.97;101961.97;5065265;28;20151;-54
2022/04/26 11:06:31;;;;;;;6.75;3.85;;;;;;;15.26;46.38;101955.38;5067313;28;20029;-53
2022/04/26 11:09:11;;;;;;;9.40;3.97;;;;;;;15.45;47.92;101946.38;5065412;28;20086;-53
2022/04/26 11:11:55;;;;;;;7.03;3.67;;;;;;;15.64;46.72;101962.41;5060979;28;20037;-50
2022/04/26 11:14:21;;;;;;;7.75;4.10;;;;;;;15.61;45.00;101957.13;5064504;28;20458;-49
2022/04/26 11:16:58;;;;;;;9.68;3.97;;;;;;;15.55;45.18;101958.75;5064641;28;20033;-54
2022/04/26 11:19:32;;;;;;;6.68;3.80;;;;;;;15.60;45.55;101963.16;5061352;28;20029;-55
2022/04/26 11:22:04;;;;;;;11.35;3.95;;;;;;;15.51;44.41;101975.03;5065210;28;20037;-54
2022/04/26 11:29:57;;;;;;;5.82;3.72;;;;;;;15.92;43.12;101956.19;5065757;28;20472;-51
2022/04/26 11:32:34;;;;;;;7.45;3.80;;;;;;;16.17;42.88;101960.22;5067954;28;20056;-55
2022/04/26 11:35:01;;;;;;;5.15;3.42;;;;;;;16.38;41.41;101965.00;5066487;28;20052;-50
2022/04/26 11:37:27;;;;;;;5.05;3.33;;;;;;;16.53;40.49;101961.03;5069351;28;20082;-55
2022/04/26 11:39:52;;;;;;;3.97;3.35;;;;;;;16.62;39.08;101955.13;5067989;28;20774;-55
2022/04/26 11:42:19;;;;;;;4.07;3.17;;;;;;;16.87;39.03;101947.03;5067740;28;20045;-54
2022/04/26 11:44:59;;;;;;;5.93;4.03;;;;;;;17.05;40.83;101956.03;5067968;28;20480;-55
2022/04/26 11:47:50;;;;;;;7.10;3.72;;;;;;;17.16;40.34;101962.28;5066207;28;20024;-55
2022/04/26 11:50:17;;;;;;;3.60;2.83;;;;;;;16.95;39.23;101952.38;5067409;28;20931;-54
2022/04/26 11:52:44;;;;;;;6.05;3.05;;;;;;;16.68;38.82;101967.38;5070122;28;20495;-54
2022/04/26 11:55:21;;;;;;;4.35;3.00;;;;;;;16.64;40.20;101969.03;5067516;28;20039;-52
2022/04/26 11:57:47;;;;;;;8.80;3.50;;;;;;;16.51;40.14;101973.09;5069760;28;20048;-54
2022/04/26 12:00:17;;;;;;;5.47;3.40;;;;;;;16.13;38.59;101968.78;5067348;28;20032;-55
2022/04/26 12:02:45;;;;;;;4.10;3.20;;;;;;;15.89;39.16;101974.25;5068246;28;20028;-54
2022/04/26 12:05:11;;;;;;;5.97;2.83;;;;;;;15.69;39.32;101981.56;5068230;28;20432;-55
2022/04/26 12:07:37;;;;;;;5.63;3.13;;;;;;;15.62;39.37;101971.84;5069340;28;20025;-54
2022/04/26 12:10:03;;;;;;;4.28;3.00;;;;;;;15.61;39.69;101980.47;5064766;28;20054;-54
2022/04/26 12:12:29;;;;;;;4.47;3.10;;;;;;;15.71;40.36;101972.09;5067580;28;20489;-51
2022/04/26 12:14:55;;;;;;;7.72;3.15;;;;;;;15.52;39.52;101974.19;5067934;28;20502;-54
2022/04/26 12:17:29;;;;;;;9.35;3.97;;;;;;;15.49;39.81;101971.53;5068436;28;20028;-54
2022/04/26 12:19:55;;;;;;;4.35;2.80;;;;;;;15.48;39.42;101974.97;5057471;28;20036;-55
2022/04/26 12:22:25;;;;;;;6.28;3.00;;;;;;;15.60;40.03;101968.34;5068202;28;20051;-52
2022/04/26 12:24:51;;;;;;;5.78;3.17;;;;;;;15.71;41.24;101975.59;5065039;28;20101;-53
2022/04/26 12:27:26;;;;;;;6.28;3.47;;;;;;;15.68;40.14;101965.13;5067736;28;20024;-50
2022/04/26 12:29:52;;;;;;;4.72;3.00;;;;;;;15.67;39.50;101975.47;5068794;28;20060;-54
2022/04/26 12:32:26;;;;;;;5.88;3.10;;;;;;;15.69;40.11;101972.06;5067104;28;20063;-52
2022/04/26 12:34:57;;;;;;;7.40;3.22;;;;;;;15.82;41.64;101976.72;5067321;28;20070;-54
2022/04/26 12:37:27;;;;;;;4.28;2.88;;;;;;;15.88;40.44;101972.50;5067748;28;20043;-50
2022/04/26 12:40:07;;;;;;;5.43;3.67;;;;;;;15.96;40.91;101971.00;5068903;28;20036;-54
2022/04/26 12:42:39;;;;;;;5.22;3.15;;;;;;;15.98;42.03;101975.38;5064460;28;20027;-51
2022/04/26 12:45:11;;;;;;;7.15;3.47;;;;;;;15.86;40.95;101975.06;5066994;28;20039;-51
2022/04/26 12:50:31;;;;;;;5.38;3.30;;;;;;;15.85;43.45;101972.47;5068091;28;20120;-49
2022/04/26 12:53:05;;;;;;;9.40;3.70;;;;;;;15.82;43.20;101974.13;5066457;28;20468;-55
2022/04/26 12:55:36;;;;;;;5.95;3.33;;;;;;;15.78;42.17;101972.31;5067153;28;20028;-53
2022/04/26 12:58:10;;;;;;;4.50;3.38;;;;;;;15.84;42.20;101971.59;5065384;28;20059;-55
2022/04/26 13:00:41;;;;;;;9.10;3.63;;;;;;;15.85;41.86;101967.28;5068668;28;20063;-53
2022/04/26 13:03:08;;;;;;;6.97;3.40;;;;;;;15.92;42.96;101970.03;5067978;28;20021;-48
2022/04/26 13:05:42;;;;;;;5.43;3.55;;;;;;;15.79;41.97;101966.28;5066544;28;20532;-55
2022/04/26 13:08:09;;;;;;;6.25;3.47;;;;;;;15.67;42.12;101971.16;5066086;28;20495;-55
2022/04/26 13:10:34;;;;;;;7.57;3.72;;;;;;;15.65;43.10;101971.94;5064723;28;20024;-55
2022/04/26 13:13:00;;;;;;;7.68;3.30;;;;;;;15.65;43.37;101970.25;5065347;28;20066;-53
2022/04/26 13:15:27;;;;;;;6.60;3.70;;;;;;;15.61;42.31;101965.78;5067786;28;20563;-55
2022/04/26 13:17:53;;;;;;;5.97;2.92;;;;;;;15.70;42.45;101972.94;5065834;28;20044;-54
2022/04/26 13:20:19;;;;;;;5.07;3.13;;;;;;;15.77;42.81;101961.88;5067253;28;20059;-55
2022/04/26 13:22:44;;;;;;;7.50;3.20;;;;;;;15.84;43.10;101968.13;5066425;28;20099;-55
2022/04/26 13:25:10;;;;;;;6.22;3.38;;;;;;;15.89;43.31;101971.66;5068315;28;20032;-54
2022/04/26 13:27:37;;;;;;;6.65;2.97;;;;;;;15.92;42.76;101964.84;5065256;28;21928;-55
2022/04/26 13:30:03;;;;;;;9.25;3.53;;;;;;;15.95;43.06;101975.28;5063901;28;20495;-55
2022/04/26 13:32:29;;;;;;;6.20;3.40;;;;;;;15.88;42.08;101964.72;5064939;28;20045;-53
2022/04/26 13:34:55;;;;;;;8.65;3.45;;;;;;;15.83;42.24;101964.63;5062054;28;20103;-52
2022/04/26 13:37:21;;;;;;;4.70;3.25;;;;;;;15.84;42.16;101968.13;5067730;28;20044;-55
2022/04/26 13:39:48;;;;;;;7.93;3.13;;;;;;;15.83;42.91;101967.22;5067719;28;20016;-53
2022/04/26 13:42:13;;;;;;;7.75;3.35;;;;;;;15.83;42.18;101962.03;5062076;28;20275;-51
2022/04/26 13:44:40;;;;;;;5.57;3.03;;;;;;;15.82;42.32;101970.66;5061773;28;20087;-54
2022/04/26 13:47:06;;;;;;;7.05;3.65;;;;;;;15.69;41.73;101973.78;5058830;28;20472;-55
2022/04/26 13:49:34;;;;;;;9.45;3.63;;;;;;;15.67;42.27;101972.88;5064300;28;20051;-55
2022/04/26 13:52:00;;;;;;;5.90;3.50;;;;;;;15.61;42.09;101967.50;5063640;28;20023;-49
2022/04/26 13:54:27;;;;;;;5.45;2.97;;;;;;;15.73;42.33;101979.09;5064047;28;20451;-54
2022/04/26 13:56:54;;;;;;;5.90;3.03;;;;;;;15.81;41.87;101976.69;5068321;28;20100;-54
2022/04/26 13:59:20;;;;;;;6.75;3.15;;;;;;;15.76;41.41;101973.97;5064214;28;20626;-54
2022/04/26 14:01:46;;;;;;;6.57;3.40;;;;;;;15.74;41.37;101974.78;5068063;28;20496;-51
2022/04/26 14:04:11;;;;;;;9.07;3.28;;;;;;;15.72;41.90;101973.88;5065828;28;20036;-54
2022/04/26 14:06:37;;;;;;;4.72;3.17;;;;;;;15.52;40.31;101981.09;5067141;28;20035;-55
2022/04/26 14:09:03;;;;;;;6.97;3.22;;;;;;;15.44;40.69;101985.22;5061737;28;20036;-47
2022/04/26 14:11:28;;;;;;;8.25;3.17;;;;;;;15.45;40.87;101977.47;5058757;28;20524;-55
2022/04/26 14:22:05;;;;;;;6.97;2.83;;;;;;;15.52;41.48;101974.19;5058432;28;20047;-56
2022/04/26 14:24:30;;;;;;;5.25;2.95;;;;;;;15.58;42.25;101978.66;5062224;28;20020;-54
2022/04/26 14:26:57;;;;;;;5.18;3.00;;;;;;;15.60;42.05;101986.50;5065629;28;20032;-52
2022/04/26 14:29:23;;;;;;;9.90;3.40;;;;;;;15.58;41.54;101999.41;5063027;28;20107;-52
2022/04/26 14:31:51;;;;;;;7.50;2.95;;;;;;;15.49;41.16;101991.41;5059736;28;20123;-54
2022/04/26 14:34:17;;;;;;;5.63;2.85;;;;;;;15.43;40.82;101991.25;5057862;28;20109;-54
2022/04/26 14:36:42;;;;;;;7.35;3.00;;;;;;;15.34;40.73;101991.88;5060788;28;20024;-55
2022/04/26 14:39:07;;;;;;;4.97;2.67;;;;;;;15.33;41.20;101997.88;5067042;28;20028;-56
2022/04/26 14:41:34;;;;;;;5.47;2.92;;;;;;;15.35;41.77;102004.00;5064529;28;20111;-53
2022/04/26 14:44:00;;;;;;;6.35;2.97;;;;;;;15.32;41.37;101988.38;5062428;28;20039;-46
2022/04/26 14:46:28;;;;;;;6.57;2.88;;;;;;;15.33;41.23;101992.72;5061861;28;20028;-53
2022/04/26 14:48:53;;;;;;;8.98;3.00;;;;;;;15.35;41.82;101991.06;5064208;28;20134;-55
2022/04/26 14:51:19;;;;;;;5.63;3.00;;;;;;;15.38;41.86;101995.44;5064689;28;20036;-55
2022/04/26 14:53:44;;;;;;;3.95;2.70;;;;;;;15.39;41.84;102003.22;5065704;28;20048;-49
2022/04/26 14:56:10;;;;;;;4.38;2.75;;;;;;;15.38;42.29;101998.91;5064142;28;20044;-54
2022/04/26 14:58:35;;;;;;;9.35;2.83;;;;;;;15.35;41.50;102009.19;5062969;28;20471;-55
2022/04/26 15:01:01;;;;;;;5.82;2.83;;;;;;;15.21;40.81;102007.94;5066414;28;20039;-55
2022/04/26 15:03:30;;;;;;;9.80;3.10;;;;;;;15.27;41.49;102006.38;5063701;28;20028;-54
2022/04/26 15:05:58;;;;;;;5.00;2.60;;;;;;;15.28;41.45;102005.53;5070193;28;20032;-50
2022/04/26 15:11:07;;;;;;;3.60;2.55;;;;;;;15.27;40.03;102005.50;5062758;28;20114;-55
2022/04/26 15:19:00;;;;;;;5.38;2.33;;;;;;;15.30;40.37;101997.81;5063696;28;20309;-54
2022/04/26 15:21:25;;;;;;;2.95;2.20;;;;;;;15.24;39.86;101997.66;5064481;28;20408;-54
2022/04/26 15:23:53;;;;;;;4.68;2.70;;;;;;;15.16;39.78;101991.38;5060505;28;20048;-55
2022/04/26 15:26:19;;;;;;;6.57;3.08;;;;;;;15.15;40.10;101992.22;5061613;28;20039;-53
2022/04/26 15:28:44;;;;;;;4.07;2.58;;;;;;;15.17;40.37;101994.03;5065024;28;20138;-53
2022/04/26 15:31:10;;;;;;;4.00;2.65;;;;;;;15.24;40.44;101993.34;5061950;28;20028;-55
2022/04/26 15:33:35;;;;;;;5.13;2.30;;;;;;;15.35;39.70;101990.16;5064471;28;20048;-53
2022/04/26 15:36:02;;;;;;;4.60;2.42;;;;;;;15.25;38.32;102002.88;5061578;28;20886;-47